createdAt,value
2017-02-17T00:00:47.243Z,1012.17
2017-02-17T00:01:47.263Z,1012.15
2017-02-17T00:02:47.278Z,1012.13
2017-02-17T00:03:47.290Z,1012.13
2017-02-17T00:04:47.304Z,1012.1
2017-02-17T00:05:47.322Z,1012.12
2017-02-17T00:06:47.335Z,1012.08
2017-02-17T00:07:47.448Z,1012.12
2017-02-17T00:08:47.366Z,1012.09
2017-02-17T00:09:47.380Z,1012.11
2017-02-17T00:10:47.395Z,1012.11
2017-02-17T00:11:47.410Z,1012.06
2017-02-17T00:12:47.428Z,1012.07
2017-02-17T00:13:47.438Z,1012.03
2017-02-17T00:14:47.455Z,1012.05
2017-02-17T00:15:47.472Z,1012.07
2017-02-17T00:16:47.486Z,1012.07
2017-02-17T00:17:47.649Z,1012.03
2017-02-17T00:18:47.516Z,1012.01
2017-02-17T00:19:47.533Z,1012.01
2017-02-17T00:20:47.545Z,1012
2017-02-17T00:21:47.562Z,1012.02
2017-02-17T00:22:47.576Z,1011.97
2017-02-17T00:23:47.592Z,1011.99
2017-02-17T00:24:47.607Z,1011.95
2017-02-17T00:25:47.623Z,1011.98
2017-02-17T00:26:47.636Z,1011.9
2017-02-17T00:27:47.752Z,1011.93
2017-02-17T00:28:47.669Z,1011.9
2017-02-17T00:29:47.680Z,1011.88
2017-02-17T00:30:47.699Z,1011.88
2017-02-17T00:31:47.713Z,1011.83
2017-02-17T00:32:47.725Z,1011.82
2017-02-17T00:33:47.741Z,1011.82
2017-02-17T00:34:47.759Z,1011.85
2017-02-17T00:35:47.774Z,1011.82
2017-02-17T00:36:47.787Z,1011.84
2017-02-17T00:37:47.801Z,1011.81
2017-02-17T00:38:47.817Z,1011.83
2017-02-17T00:39:47.833Z,1011.82
2017-02-17T00:40:47.849Z,1011.84
2017-02-17T00:41:47.861Z,1011.85
2017-02-17T00:42:47.876Z,1011.84
2017-02-17T00:43:47.892Z,1011.82
2017-02-17T00:44:47.905Z,1011.81
2017-02-17T00:45:47.924Z,1011.79
2017-02-17T00:46:47.937Z,1011.78
2017-02-17T00:47:47.954Z,1011.77
2017-02-17T00:48:47.966Z,1011.78
2017-02-17T00:49:47.981Z,1011.8
2017-02-17T00:50:47.996Z,1011.8
2017-02-17T00:51:48.010Z,1011.81
2017-02-17T00:52:48.027Z,1011.77
2017-02-17T00:53:48.040Z,1011.78
2017-02-17T00:54:48.059Z,1011.74
2017-02-17T00:55:48.071Z,1011.76
2017-02-17T00:56:48.085Z,1011.75
2017-02-17T00:57:48.103Z,1011.78
2017-02-17T00:58:48.115Z,1011.81
2017-02-17T00:59:48.134Z,1011.78
2017-02-17T01:00:48.146Z,1011.76
2017-02-17T01:01:48.163Z,1011.76
2017-02-17T01:02:48.177Z,1011.74
2017-02-17T01:03:48.193Z,1011.76
2017-02-17T01:04:48.207Z,1011.77
2017-02-17T01:05:48.223Z,1011.76
2017-02-17T01:06:48.237Z,1011.77
2017-02-17T01:07:48.253Z,1011.84
2017-02-17T01:08:48.265Z,1011.8
2017-02-17T01:09:48.280Z,1011.81
2017-02-17T01:10:48.297Z,1011.76
2017-02-17T01:11:48.310Z,1011.79
2017-02-17T01:12:48.326Z,1011.74
2017-02-17T01:13:48.343Z,1011.7
2017-02-17T01:14:48.358Z,1011.68
2017-02-17T01:15:48.372Z,1011.69
2017-02-17T01:16:48.387Z,1011.68
2017-02-17T01:17:48.399Z,1011.66
2017-02-17T01:18:48.415Z,1011.67
2017-02-17T01:19:48.432Z,1011.67
2017-02-17T01:20:48.447Z,1011.65
2017-02-17T01:21:48.459Z,1011.63
2017-02-17T01:22:48.478Z,1011.63
2017-02-17T01:23:48.491Z,1011.61
2017-02-17T01:24:48.503Z,1011.55
2017-02-17T01:25:48.521Z,1011.52
2017-02-17T01:26:48.535Z,1011.5
2017-02-17T01:27:48.551Z,1011.5
2017-02-17T01:28:48.564Z,1011.48
2017-02-17T01:29:48.580Z,1011.46
2017-02-17T01:30:48.595Z,1011.43
2017-02-17T01:31:48.612Z,1011.41
2017-02-17T01:32:48.626Z,1011.39
2017-02-17T01:33:48.645Z,1011.37
2017-02-17T01:34:48.657Z,1011.38
2017-02-17T01:35:48.673Z,1011.38
2017-02-17T01:36:48.687Z,1011.37
2017-02-17T01:37:48.700Z,1011.4
2017-02-17T01:38:48.717Z,1011.42
2017-02-17T01:39:48.733Z,1011.41
2017-02-17T01:40:48.748Z,1011.47
2017-02-17T01:41:48.764Z,1011.45
2017-02-17T01:42:48.775Z,1011.4
2017-02-17T01:43:48.790Z,1011.35
2017-02-17T01:44:48.799Z,1011.39
2017-02-17T01:45:48.821Z,1011.37
2017-02-17T01:46:48.838Z,1011.36
2017-02-17T01:47:48.845Z,1011.34
2017-02-17T01:48:48.863Z,1011.36
2017-02-17T01:49:48.878Z,1011.36
2017-02-17T01:50:48.895Z,1011.36
2017-02-17T01:51:48.901Z,1011.3
2017-02-17T01:52:48.921Z,1011.29
2017-02-17T01:53:48.936Z,1011.28
2017-02-17T01:54:48.953Z,1011.29
2017-02-17T01:55:48.961Z,1011.3
2017-02-17T01:56:48.973Z,1011.29
2017-02-17T01:57:48.991Z,1011.27
2017-02-17T01:58:49.012Z,1011.31
2017-02-17T01:59:49.024Z,1011.24
2017-02-17T02:00:49.041Z,1011.28
2017-02-17T02:01:49.056Z,1011.26
2017-02-17T02:02:49.064Z,1011.22
2017-02-17T02:03:49.082Z,1011.25
2017-02-17T02:04:49.099Z,1011.2
2017-02-17T02:05:49.112Z,1011.26
2017-02-17T02:06:49.127Z,1011.27
2017-02-17T02:07:49.142Z,1011.23
2017-02-17T02:08:49.159Z,1011.32
2017-02-17T02:09:49.164Z,1011.28
2017-02-17T02:10:49.188Z,1011.24
2017-02-17T02:11:49.196Z,1011.24
2017-02-17T02:12:49.217Z,1011.21
2017-02-17T02:13:49.268Z,1011.19
2017-02-17T02:14:49.240Z,1011.2
2017-02-17T02:15:49.258Z,1011.18
2017-02-17T02:16:49.272Z,1011.13
2017-02-17T02:17:49.287Z,1011.1
2017-02-17T02:18:49.301Z,1011.05
2017-02-17T02:19:49.317Z,1011.03
2017-02-17T02:20:49.333Z,1011.04
2017-02-17T02:21:49.345Z,1011.03
2017-02-17T02:22:49.362Z,1010.99
2017-02-17T02:23:49.375Z,1011
2017-02-17T02:24:49.384Z,1011.01
2017-02-17T02:25:49.405Z,1011.03
2017-02-17T02:26:49.415Z,1011.02
2017-02-17T02:27:49.431Z,1011.08
2017-02-17T02:28:49.447Z,1011.05
2017-02-17T02:29:49.462Z,1011.03
2017-02-17T02:30:49.472Z,1011.04
2017-02-17T02:31:49.487Z,1011.08
2017-02-17T02:32:49.505Z,1011.07
2017-02-17T02:33:49.521Z,1011.08
2017-02-17T02:34:49.534Z,1011.08
2017-02-17T02:35:49.549Z,1011
2017-02-17T02:36:49.566Z,1011
2017-02-17T02:37:49.577Z,1010.95
2017-02-17T02:38:49.588Z,1010.94
2017-02-17T02:39:49.608Z,1010.91
2017-02-17T02:40:49.614Z,1010.9
2017-02-17T02:41:49.637Z,1010.88
2017-02-17T02:42:49.651Z,1010.88
2017-02-17T02:43:49.663Z,1010.87
2017-02-17T02:44:49.672Z,1010.89
2017-02-17T02:45:49.697Z,1010.88
2017-02-17T02:46:49.703Z,1010.87
2017-02-17T02:47:49.725Z,1010.84
2017-02-17T02:48:49.738Z,1010.86
2017-02-17T02:49:49.751Z,1010.83
2017-02-17T02:50:49.761Z,1010.91
2017-02-17T02:51:49.781Z,1010.91
2017-02-17T02:52:49.787Z,1010.99
2017-02-17T02:53:49.803Z,1011.02
2017-02-17T02:54:49.822Z,1010.97
2017-02-17T02:55:49.836Z,1010.96
2017-02-17T02:56:49.851Z,1010.96
2017-02-17T02:57:49.865Z,1010.92
2017-02-17T02:58:49.880Z,1010.93
2017-02-17T02:59:49.895Z,1010.91
2017-02-17T03:00:49.903Z,1010.88
2017-02-17T03:01:49.924Z,1010.86
2017-02-17T03:02:49.937Z,1010.89
2017-02-17T03:03:49.952Z,1010.89
2017-02-17T03:04:49.966Z,1010.86
2017-02-17T03:05:49.975Z,1010.9
2017-02-17T03:06:49.991Z,1010.93
2017-02-17T03:07:50.005Z,1010.88
2017-02-17T03:08:50.023Z,1010.86
2017-02-17T03:09:50.037Z,1010.89
2017-02-17T03:10:50.054Z,1010.83
2017-02-17T03:11:50.066Z,1010.85
2017-02-17T03:12:50.081Z,1010.82
2017-02-17T03:13:50.096Z,1010.81
2017-02-17T03:14:50.108Z,1010.76
2017-02-17T03:15:50.126Z,1010.74
2017-02-17T03:16:50.137Z,1010.74
2017-02-17T03:17:50.153Z,1010.7
2017-02-17T03:18:50.166Z,1010.71
2017-02-17T03:19:50.179Z,1010.74
2017-02-17T03:20:50.188Z,1010.76
2017-02-17T03:21:50.202Z,1010.71
2017-02-17T03:22:50.223Z,1010.65
2017-02-17T03:23:50.230Z,1010.64
2017-02-17T03:24:50.244Z,1010.63
2017-02-17T03:25:50.267Z,1010.63
2017-02-17T03:26:50.279Z,1010.67
2017-02-17T03:27:50.293Z,1010.69
2017-02-17T03:28:50.302Z,1010.64
2017-02-17T03:29:50.322Z,1010.65
2017-02-17T03:30:50.335Z,1010.64
2017-02-17T03:31:50.350Z,1010.61
2017-02-17T03:32:50.359Z,1010.64
2017-02-17T03:33:50.379Z,1010.66
2017-02-17T03:34:50.388Z,1010.65
2017-02-17T03:35:50.401Z,1010.66
2017-02-17T03:36:50.426Z,1010.68
2017-02-17T03:37:50.436Z,1010.66
2017-02-17T03:38:50.450Z,1010.66
2017-02-17T03:39:50.466Z,1010.69
2017-02-17T03:40:50.480Z,1010.71
2017-02-17T03:41:50.492Z,1010.71
2017-02-17T03:42:50.512Z,1010.7
2017-02-17T03:43:50.523Z,1010.69
2017-02-17T03:44:50.531Z,1010.69
2017-02-17T03:45:50.553Z,1010.71
2017-02-17T03:46:50.565Z,1010.72
2017-02-17T03:47:50.577Z,1010.75
2017-02-17T03:48:50.592Z,1010.73
2017-02-17T03:49:50.601Z,1010.7
2017-02-17T03:50:50.621Z,1010.67
2017-02-17T03:51:50.636Z,1010.74
2017-02-17T03:52:50.650Z,1010.76
2017-02-17T03:53:50.662Z,1010.67
2017-02-17T03:54:50.679Z,1010.72
2017-02-17T03:55:50.691Z,1010.74
2017-02-17T03:56:50.706Z,1010.73
2017-02-17T03:57:50.720Z,1010.74
2017-02-17T03:58:50.727Z,1010.74
2017-02-17T03:59:50.748Z,1010.72
2017-02-17T04:00:50.800Z,1010.75
2017-02-17T04:01:50.776Z,1010.73
2017-02-17T04:02:50.790Z,1010.72
2017-02-17T04:03:50.799Z,1010.73
2017-02-17T04:04:50.818Z,1010.72
2017-02-17T04:05:50.828Z,1010.71
2017-02-17T04:06:50.847Z,1010.64
2017-02-17T04:07:50.862Z,1010.64
2017-02-17T04:08:50.874Z,1010.59
2017-02-17T04:09:50.889Z,1010.61
2017-02-17T04:10:50.903Z,1010.55
2017-02-17T04:11:50.918Z,1010.62
2017-02-17T04:12:50.935Z,1010.62
2017-02-17T04:13:50.945Z,1010.61
2017-02-17T04:14:50.958Z,1010.61
2017-02-17T04:15:50.975Z,1010.59
2017-02-17T04:16:50.987Z,1010.52
2017-02-17T04:17:50.996Z,1010.56
2017-02-17T04:18:51.017Z,1010.48
2017-02-17T04:19:51.032Z,1010.54
2017-02-17T04:20:51.040Z,1010.5
2017-02-17T04:21:51.058Z,1010.5
2017-02-17T04:22:51.073Z,1010.52
2017-02-17T04:23:51.087Z,1010.52
2017-02-17T04:24:51.102Z,1010.49
2017-02-17T04:25:51.117Z,1010.5
2017-02-17T04:26:51.130Z,1010.48
2017-02-17T04:27:51.143Z,1010.51
2017-02-17T04:28:51.157Z,1010.5
2017-02-17T04:29:51.174Z,1010.46
2017-02-17T04:30:51.185Z,1010.43
2017-02-17T04:31:51.202Z,1010.42
2017-02-17T04:32:51.215Z,1010.42
2017-02-17T04:33:51.230Z,1010.42
2017-02-17T04:34:51.244Z,1010.38
2017-02-17T04:35:51.252Z,1010.4
2017-02-17T04:36:51.270Z,1010.43
2017-02-17T04:37:51.284Z,1010.48
2017-02-17T04:38:51.299Z,1010.45
2017-02-17T04:39:51.311Z,1010.5
2017-02-17T04:40:51.325Z,1010.47
2017-02-17T04:41:51.340Z,1010.48
2017-02-17T04:42:51.356Z,1010.5
2017-02-17T04:43:51.370Z,1010.49
2017-02-17T04:44:51.383Z,1010.48
2017-02-17T04:45:51.397Z,1010.46
2017-02-17T04:46:51.410Z,1010.47
2017-02-17T04:47:51.424Z,1010.49
2017-02-17T04:48:51.445Z,1010.51
2017-02-17T04:49:51.452Z,1010.5
2017-02-17T04:50:51.469Z,1010.48
2017-02-17T04:51:51.479Z,1010.49
2017-02-17T04:52:51.496Z,1010.46
2017-02-17T04:53:51.509Z,1010.47
2017-02-17T04:54:51.524Z,1010.51
2017-02-17T04:55:51.539Z,1010.47
2017-02-17T04:56:51.554Z,1010.44
2017-02-17T04:57:51.567Z,1010.4
2017-02-17T04:58:51.573Z,1010.44
2017-02-17T04:59:51.589Z,1010.4
2017-02-17T05:00:51.605Z,1010.4
2017-02-17T05:01:51.622Z,1010.4
2017-02-17T05:02:51.636Z,1010.42
2017-02-17T05:03:51.650Z,1010.43
2017-02-17T05:04:51.663Z,1010.44
2017-02-17T05:05:51.672Z,1010.42
2017-02-17T05:06:51.694Z,1010.38
2017-02-17T05:07:51.707Z,1010.36
2017-02-17T05:08:51.717Z,1010.37
2017-02-17T05:09:51.732Z,1010.41
2017-02-17T05:10:51.747Z,1010.38
2017-02-17T05:11:51.763Z,1010.37
2017-02-17T05:12:51.774Z,1010.39
2017-02-17T05:13:51.780Z,1010.36
2017-02-17T05:14:51.800Z,1010.36
2017-02-17T05:15:51.815Z,1010.34
2017-02-17T05:16:51.824Z,1010.34
2017-02-17T05:17:51.842Z,1010.33
2017-02-17T05:18:51.858Z,1010.31
2017-02-17T05:19:51.871Z,1010.34
2017-02-17T05:20:51.886Z,1010.33
2017-02-17T05:21:51.897Z,1010.31
2017-02-17T05:22:51.911Z,1010.32
2017-02-17T05:23:51.926Z,1010.31
2017-02-17T05:24:51.934Z,1010.29
2017-02-17T05:25:51.957Z,1010.31
2017-02-17T05:26:51.969Z,1010.28
2017-02-17T05:27:51.982Z,1010.22
2017-02-17T05:28:51.997Z,1010.22
2017-02-17T05:29:52.009Z,1010.14
2017-02-17T05:30:52.025Z,1010.13
2017-02-17T05:31:52.036Z,1010.13
2017-02-17T05:32:52.050Z,1010.11
2017-02-17T05:33:52.064Z,1010.14
2017-02-17T05:34:52.081Z,1010.15
2017-02-17T05:35:52.093Z,1010.19
2017-02-17T05:36:52.110Z,1010.15
2017-02-17T05:37:52.121Z,1010.17
2017-02-17T05:38:52.135Z,1010.14
2017-02-17T05:39:52.146Z,1010.13
2017-02-17T05:40:52.161Z,1010.11
2017-02-17T05:41:52.176Z,1010.09
2017-02-17T05:42:52.190Z,1010.14
2017-02-17T05:43:52.202Z,1010.14
2017-02-17T05:44:52.223Z,1010.11
2017-02-17T05:45:52.223Z,1010.12
2017-02-17T05:46:52.246Z,1010.09
2017-02-17T05:47:52.260Z,1010.07
2017-02-17T05:48:52.274Z,1010.07
2017-02-17T05:49:52.286Z,1010.07
2017-02-17T05:50:52.300Z,1010.04
2017-02-17T05:51:52.315Z,1010.08
2017-02-17T05:52:52.326Z,1010.05
2017-02-17T05:53:52.340Z,1010.05
2017-02-17T05:54:52.346Z,1010.04
2017-02-17T05:55:52.367Z,1010.06
2017-02-17T05:56:52.383Z,1010.04
2017-02-17T05:57:52.388Z,1010.04
2017-02-17T05:58:52.410Z,1010.03
2017-02-17T05:59:52.423Z,1010.05
2017-02-17T06:00:52.435Z,1010.04
2017-02-17T06:01:52.451Z,1010.11
2017-02-17T06:02:52.464Z,1010.1
2017-02-17T06:03:52.477Z,1010.1
2017-02-17T06:04:52.491Z,1010.1
2017-02-17T06:05:52.507Z,1010.11
2017-02-17T06:06:52.524Z,1010.14
2017-02-17T06:07:52.533Z,1010.09
2017-02-17T06:08:52.548Z,1010.14
2017-02-17T06:09:52.561Z,1010.09
2017-02-17T06:10:52.576Z,1010.15
2017-02-17T06:11:52.588Z,1010.14
2017-02-17T06:12:52.601Z,1010.13
2017-02-17T06:13:52.615Z,1010.12
2017-02-17T06:14:52.622Z,1010.14
2017-02-17T06:15:52.634Z,1010.15
2017-02-17T06:16:52.655Z,1010.16
2017-02-17T06:17:52.668Z,1010.16
2017-02-17T06:18:52.680Z,1010.18
2017-02-17T06:19:52.812Z,1010.18
2017-02-17T06:20:52.821Z,1010.19
2017-02-17T06:21:52.826Z,1010.18
2017-02-17T06:22:52.847Z,1010.18
2017-02-17T06:23:52.836Z,1010.18
2017-02-17T06:24:52.875Z,1010.21
2017-02-17T06:25:52.782Z,1010.13
2017-02-17T06:26:52.789Z,1010.11
2017-02-17T06:27:53.093Z,1010.1
2017-02-17T06:28:52.930Z,1010.07
2017-02-17T06:29:52.941Z,1010.1
2017-02-17T06:30:52.842Z,1010.14
2017-02-17T06:31:52.857Z,1010.13
2017-02-17T06:32:52.874Z,1010.14
2017-02-17T06:33:52.887Z,1010.14
2017-02-17T06:34:52.899Z,1010.22
2017-02-17T06:35:52.913Z,1010.21
2017-02-17T06:36:52.918Z,1010.22
2017-02-17T06:37:52.939Z,1010.2
2017-02-17T06:38:52.953Z,1010.24
2017-02-17T06:39:52.965Z,1010.25
2017-02-17T06:40:52.977Z,1010.22
2017-02-17T06:41:52.993Z,1010.24
2017-02-17T06:42:53.004Z,1010.24
2017-02-17T06:43:53.018Z,1010.22
2017-02-17T06:44:53.027Z,1010.22
2017-02-17T06:45:53.045Z,1010.23
2017-02-17T06:46:53.058Z,1010.22
2017-02-17T06:47:53.075Z,1010.27
2017-02-17T06:48:53.080Z,1010.2
2017-02-17T06:49:53.099Z,1010.24
2017-02-17T06:50:53.112Z,1010.26
2017-02-17T06:51:53.126Z,1010.27
2017-02-17T06:52:53.135Z,1010.24
2017-02-17T06:53:53.155Z,1010.24
2017-02-17T06:54:53.168Z,1010.28
2017-02-17T06:55:53.172Z,1010.28
2017-02-17T06:56:53.193Z,1010.3
2017-02-17T06:57:53.208Z,1010.24
2017-02-17T06:58:53.219Z,1010.24
2017-02-17T06:59:53.234Z,1010.28
2017-02-17T07:00:53.238Z,1010.3
2017-02-17T07:01:53.262Z,1010.26
2017-02-17T07:02:53.274Z,1010.26
2017-02-17T07:03:53.287Z,1010.21
2017-02-17T07:04:53.294Z,1010.24
2017-02-17T07:05:53.308Z,1010.21
2017-02-17T07:06:53.529Z,1010.22
2017-02-17T07:07:53.345Z,1010.2
2017-02-17T07:08:53.354Z,1010.18
2017-02-17T07:09:53.365Z,1010.2
2017-02-17T07:10:53.380Z,1010.16
2017-02-17T07:11:53.395Z,1010.14
2017-02-17T07:12:53.407Z,1010.18
2017-02-17T07:13:53.421Z,1010.19
2017-02-17T07:14:53.434Z,1010.18
2017-02-17T07:15:53.446Z,1010.2
2017-02-17T07:16:53.455Z,1010.2
2017-02-17T07:17:53.471Z,1010.19
2017-02-17T07:18:53.486Z,1010.24
2017-02-17T07:19:53.491Z,1010.21
2017-02-17T07:20:53.516Z,1010.18
2017-02-17T07:21:53.525Z,1010.18
2017-02-17T07:22:53.541Z,1010.2
2017-02-17T07:23:53.555Z,1010.17
2017-02-17T07:24:53.559Z,1010.13
2017-02-17T07:25:53.580Z,1010.16
2017-02-17T07:26:53.596Z,1010.14
2017-02-17T07:27:53.602Z,1010.13
2017-02-17T07:28:53.619Z,1010.13
2017-02-17T07:29:53.632Z,1010.12
2017-02-17T07:30:53.645Z,1010.14
2017-02-17T07:31:53.659Z,1010.15
2017-02-17T07:32:53.676Z,1010.16
2017-02-17T07:33:53.690Z,1010.17
2017-02-17T07:34:53.697Z,1010.23
2017-02-17T07:35:53.714Z,1010.23
2017-02-17T07:36:53.726Z,1010.23
2017-02-17T07:37:53.743Z,1010.17
2017-02-17T07:38:53.759Z,1010.22
2017-02-17T07:39:53.770Z,1010.23
2017-02-17T07:40:53.776Z,1010.27
2017-02-17T07:41:53.794Z,1010.26
2017-02-17T07:42:53.858Z,1010.26
2017-02-17T07:43:53.816Z,1010.29
2017-02-17T07:44:53.830Z,1010.23
2017-02-17T07:45:53.847Z,1010.23
2017-02-17T07:46:53.862Z,1010.24
2017-02-17T07:47:53.875Z,1010.19
2017-02-17T07:48:53.889Z,1010.19
2017-02-17T07:49:53.901Z,1010.15
2017-02-17T07:50:53.916Z,1010.17
2017-02-17T07:51:53.922Z,1010.16
2017-02-17T07:52:53.944Z,1010.16
2017-02-17T07:53:53.949Z,1010.19
2017-02-17T07:54:53.970Z,1010.14
2017-02-17T07:55:53.984Z,1010.12
2017-02-17T07:56:53.996Z,1010.14
2017-02-17T07:57:54.010Z,1010.16
2017-02-17T07:58:54.025Z,1010.15
2017-02-17T07:59:54.039Z,1010.15
2017-02-17T08:00:54.051Z,1010.15
2017-02-17T08:01:54.057Z,1010.17
2017-02-17T08:02:54.075Z,1010.17
2017-02-17T08:03:54.091Z,1010.14
2017-02-17T08:04:54.097Z,1010.14
2017-02-17T08:05:54.116Z,1010.11
2017-02-17T08:06:54.131Z,1010.13
2017-02-17T08:07:54.145Z,1010.12
2017-02-17T08:08:54.157Z,1010.13
2017-02-17T08:09:54.170Z,1010.08
2017-02-17T08:10:54.184Z,1010.11
2017-02-17T08:11:54.198Z,1010.12
2017-02-17T08:12:54.205Z,1010.11
2017-02-17T08:13:54.225Z,1010.1
2017-02-17T08:14:54.238Z,1010.12
2017-02-17T08:15:54.247Z,1010.14
2017-02-17T08:16:54.264Z,1010.12
2017-02-17T08:17:54.274Z,1010.15
2017-02-17T08:18:54.293Z,1010.15
2017-02-17T08:19:54.302Z,1010.13
2017-02-17T08:20:54.321Z,1010.1
2017-02-17T08:21:54.334Z,1010.13
2017-02-17T08:22:54.350Z,1010.13
2017-02-17T08:23:54.361Z,1010.13
2017-02-17T08:24:54.376Z,1010.17
2017-02-17T08:25:54.391Z,1010.17
2017-02-17T08:26:54.405Z,1010.1
2017-02-17T08:27:54.416Z,1010.17
2017-02-17T08:28:54.431Z,1010.13
2017-02-17T08:29:54.444Z,1010.13
2017-02-17T08:30:54.458Z,1010.1
2017-02-17T08:31:54.472Z,1010.15
2017-02-17T08:32:54.478Z,1010.16
2017-02-17T08:33:54.500Z,1010.14
2017-02-17T08:34:54.514Z,1010.14
2017-02-17T08:35:54.531Z,1010.14
2017-02-17T08:36:54.543Z,1010.16
2017-02-17T08:37:54.554Z,1010.09
2017-02-17T08:38:54.719Z,1010.09
2017-02-17T08:39:54.576Z,1010.06
2017-02-17T08:40:54.590Z,1010.02
2017-02-17T08:41:54.607Z,1010.04
2017-02-17T08:42:54.623Z,1010
2017-02-17T08:43:54.631Z,1010.01
2017-02-17T08:44:54.652Z,1009.99
2017-02-17T08:45:54.664Z,1009.99
2017-02-17T08:46:54.677Z,1010.01
2017-02-17T08:47:54.693Z,1009.98
2017-02-17T08:48:54.704Z,1010.01
2017-02-17T08:49:54.718Z,1009.99
2017-02-17T08:50:54.735Z,1009.98
2017-02-17T08:51:54.749Z,1009.97
2017-02-17T08:52:54.760Z,1009.93
2017-02-17T08:53:54.785Z,1009.89
2017-02-17T08:54:54.788Z,1009.88
2017-02-17T08:55:54.806Z,1009.84
2017-02-17T08:56:54.903Z,1009.83
2017-02-17T08:57:54.832Z,1009.83
2017-02-17T08:58:54.921Z,1009.82
2017-02-17T08:59:54.919Z,1009.79
2017-02-17T09:00:54.968Z,1009.82
2017-02-17T09:01:54.957Z,1009.85
2017-02-17T09:02:54.966Z,1009.82
2017-02-17T09:03:54.991Z,1009.82
2017-02-17T09:04:54.930Z,1009.77
2017-02-17T09:05:54.935Z,1009.78
2017-02-17T09:06:54.954Z,1009.83
2017-02-17T09:07:54.968Z,1009.86
2017-02-17T09:08:54.984Z,1009.85
2017-02-17T09:09:54.998Z,1009.81
2017-02-17T09:10:55.012Z,1009.87
2017-02-17T09:11:55.028Z,1009.88
2017-02-17T09:12:55.041Z,1009.89
2017-02-17T09:13:55.055Z,1009.86
2017-02-17T09:14:55.061Z,1009.86
2017-02-17T09:15:55.081Z,1009.81
2017-02-17T09:16:55.096Z,1009.84
2017-02-17T09:17:55.112Z,1009.84
2017-02-17T09:18:55.127Z,1009.79
2017-02-17T09:19:55.140Z,1009.83
2017-02-17T09:20:55.152Z,1009.83
2017-02-17T09:21:55.167Z,1009.82
2017-02-17T09:22:55.271Z,1009.82
2017-02-17T09:23:55.194Z,1009.81
2017-02-17T09:24:55.209Z,1009.84
2017-02-17T09:25:55.225Z,1009.77
2017-02-17T09:26:55.237Z,1009.82
2017-02-17T09:27:55.251Z,1009.82
2017-02-17T09:28:55.266Z,1009.84
2017-02-17T09:29:55.279Z,1009.83
2017-02-17T09:30:55.297Z,1009.83
2017-02-17T09:31:55.309Z,1009.84
2017-02-17T09:32:55.317Z,1009.81
2017-02-17T09:33:55.337Z,1009.89
2017-02-17T09:34:55.350Z,1009.91
2017-02-17T09:35:55.361Z,1009.86
2017-02-17T09:36:55.375Z,1009.88
2017-02-17T09:37:55.396Z,1009.86
2017-02-17T09:38:55.409Z,1009.87
2017-02-17T09:39:55.424Z,1009.9
2017-02-17T09:40:55.546Z,1009.86
2017-02-17T09:41:55.453Z,1009.87
2017-02-17T09:42:55.588Z,1009.85
2017-02-17T09:43:55.568Z,1009.84
2017-02-17T09:44:55.609Z,1009.84
2017-02-17T09:45:55.604Z,1009.84
2017-02-17T09:46:55.525Z,1009.85
2017-02-17T09:47:55.542Z,1009.84
2017-02-17T09:48:55.555Z,1009.86
2017-02-17T09:49:55.573Z,1009.83
2017-02-17T09:50:55.582Z,1009.82
2017-02-17T09:51:55.599Z,1009.89
2017-02-17T09:52:55.613Z,1009.85
2017-02-17T09:53:55.619Z,1009.81
2017-02-17T09:54:55.640Z,1009.79
2017-02-17T09:55:55.655Z,1009.78
2017-02-17T09:56:55.665Z,1009.8
2017-02-17T09:57:55.685Z,1009.77
2017-02-17T09:58:55.698Z,1009.77
2017-02-17T09:59:55.715Z,1009.77
2017-02-17T10:00:55.731Z,1009.78
2017-02-17T10:01:55.743Z,1009.74
2017-02-17T10:02:55.760Z,1009.78
2017-02-17T10:03:55.781Z,1009.81
2017-02-17T10:04:55.791Z,1009.8
2017-02-17T10:05:55.803Z,1009.78
2017-02-17T10:06:55.821Z,1009.78
2017-02-17T10:07:55.832Z,1009.78
2017-02-17T10:08:55.847Z,1009.75
2017-02-17T10:09:55.864Z,1009.77
2017-02-17T10:10:55.877Z,1009.75
2017-02-17T10:11:55.888Z,1009.75
2017-02-17T10:12:55.903Z,1009.74
2017-02-17T10:13:55.921Z,1009.75
2017-02-17T10:14:55.937Z,1009.77
2017-02-17T10:15:55.955Z,1009.74
2017-02-17T10:16:55.966Z,1009.76
2017-02-17T10:17:55.982Z,1009.73
2017-02-17T10:18:55.996Z,1009.69
2017-02-17T10:19:56.012Z,1009.67
2017-02-17T10:20:56.028Z,1009.69
2017-02-17T10:21:56.043Z,1009.7
2017-02-17T10:22:56.050Z,1009.69
2017-02-17T10:23:56.223Z,1009.69
2017-02-17T10:24:56.086Z,1009.7
2017-02-17T10:25:56.098Z,1009.67
2017-02-17T10:26:56.121Z,1009.67
2017-02-17T10:27:56.132Z,1009.64
2017-02-17T10:28:56.141Z,1009.67
2017-02-17T10:29:56.157Z,1009.68
2017-02-17T10:30:56.172Z,1009.67
2017-02-17T10:31:56.193Z,1009.67
2017-02-17T10:32:56.211Z,1009.69
2017-02-17T10:33:56.226Z,1009.64
2017-02-17T10:34:56.238Z,1009.58
2017-02-17T10:35:56.261Z,1009.64
2017-02-17T10:36:56.272Z,1009.61
2017-02-17T10:37:56.283Z,1009.63
2017-02-17T10:38:56.300Z,1009.66
2017-02-17T10:39:56.331Z,1009.56
2017-02-17T10:40:56.343Z,1009.61
2017-02-17T10:41:56.347Z,1009.6
2017-02-17T10:42:56.368Z,1009.61
2017-02-17T10:43:56.380Z,1009.63
2017-02-17T10:44:56.397Z,1009.59
2017-02-17T10:45:56.422Z,1009.61
2017-02-17T10:46:56.424Z,1009.57
2017-02-17T10:47:56.440Z,1009.58
2017-02-17T10:48:56.459Z,1009.59
2017-02-17T10:49:56.472Z,1009.61
2017-02-17T10:50:56.488Z,1009.55
2017-02-17T10:51:56.502Z,1009.58
2017-02-17T10:52:56.519Z,1009.57
2017-02-17T10:53:56.536Z,1009.56
2017-02-17T10:54:56.549Z,1009.58
2017-02-17T10:55:56.560Z,1009.52
2017-02-17T10:56:56.574Z,1009.53
2017-02-17T10:57:56.600Z,1009.48
2017-02-17T10:58:56.605Z,1009.39
2017-02-17T10:59:56.632Z,1009.48
2017-02-17T11:00:56.645Z,1009.45
2017-02-17T11:01:56.659Z,1009.47
2017-02-17T11:02:56.670Z,1009.42
2017-02-17T11:03:56.784Z,1009.36
2017-02-17T11:04:56.707Z,1009.4
2017-02-17T11:05:56.720Z,1009.36
2017-02-17T11:06:56.737Z,1009.39
2017-02-17T11:07:56.755Z,1009.36
2017-02-17T11:08:56.764Z,1009.35
2017-02-17T11:09:56.784Z,1009.42
2017-02-17T11:10:56.801Z,1009.39
2017-02-17T11:11:56.815Z,1009.42
2017-02-17T11:12:56.831Z,1009.39
2017-02-17T11:13:56.849Z,1009.32
2017-02-17T11:14:56.864Z,1009.32
2017-02-17T11:15:56.881Z,1009.3
2017-02-17T11:16:56.897Z,1009.24
2017-02-17T11:17:56.908Z,1009.24
2017-02-17T11:18:56.928Z,1009.3
2017-02-17T11:19:56.946Z,1009.27
2017-02-17T11:20:56.958Z,1009.24
2017-02-17T11:21:56.978Z,1009.29
2017-02-17T11:22:56.990Z,1009.29
2017-02-17T11:23:57.009Z,1009.3
2017-02-17T11:24:57.017Z,1009.32
2017-02-17T11:25:57.040Z,1009.26
2017-02-17T11:26:57.050Z,1009.26
2017-02-17T11:27:57.070Z,1009.22
2017-02-17T11:28:57.088Z,1009.29
2017-02-17T11:29:57.102Z,1009.24
2017-02-17T11:30:57.120Z,1009.24
2017-02-17T11:31:57.139Z,1009.22
2017-02-17T11:32:57.145Z,1009.21
2017-02-17T11:33:57.168Z,1009.25
2017-02-17T11:34:57.186Z,1009.18
2017-02-17T11:35:57.196Z,1009.2
2017-02-17T11:36:57.218Z,1009.14
2017-02-17T11:37:57.233Z,1009.2
2017-02-17T11:38:57.242Z,1009.16
2017-02-17T11:39:57.264Z,1009.21
2017-02-17T11:40:57.288Z,1009.21
2017-02-17T11:41:57.297Z,1009.15
2017-02-17T11:42:57.314Z,1009.11
2017-02-17T11:43:57.329Z,1009.15
2017-02-17T11:44:57.346Z,1009.17
2017-02-17T11:45:57.357Z,1009.16
2017-02-17T11:46:57.371Z,1009.14
2017-02-17T11:47:57.472Z,1009.17
2017-02-17T11:48:57.504Z,1009.15
2017-02-17T11:49:57.428Z,1009.16
2017-02-17T11:50:57.446Z,1009.2
2017-02-17T11:51:57.533Z,1009.13
2017-02-17T11:52:57.470Z,1009.19
2017-02-17T11:53:57.493Z,1009.2
2017-02-17T11:54:57.509Z,1009.22
2017-02-17T11:55:57.526Z,1009.22
2017-02-17T11:56:57.539Z,1009.15
2017-02-17T11:57:57.557Z,1009.19
2017-02-17T11:58:57.762Z,1009.13
2017-02-17T11:59:57.585Z,1009.15
2017-02-17T12:00:57.599Z,1009.14
2017-02-17T12:01:57.704Z,1009.15
2017-02-17T12:02:57.639Z,1009.11
2017-02-17T12:03:57.757Z,1009.13
2017-02-17T12:04:57.714Z,1009.11
2017-02-17T12:05:57.719Z,1009.13
2017-02-17T12:06:57.725Z,1009.12
2017-02-17T12:07:57.731Z,1009.06
2017-02-17T12:08:57.825Z,1009.11